createdAt,value
2022-11-16T00:01:42.857Z,99794.03
2022-11-16T00:04:11.923Z,99803.00
2022-11-16T00:06:40.167Z,99790.09
2022-11-16T00:09:28.662Z,99797.03
2022-11-16T00:11:58.221Z,99788.38
2022-11-16T00:14:28.346Z,99800.03
2022-11-16T00:16:57.967Z,99790.84
2022-11-16T00:19:26.939Z,99794.31
2022-11-16T00:21:55.412Z,99791.56
2022-11-16T00:24:24.369Z,99794.31
2022-11-16T00:26:54.327Z,99793.09
2022-11-16T00:29:23.984Z,99790.34
2022-11-16T00:31:52.250Z,99795.03
2022-11-16T00:34:22.024Z,99786.84
2022-11-16T00:36:49.916Z,99787.34
2022-11-16T00:39:18.931Z,99793.56
2022-11-16T00:41:48.185Z,99787.09
2022-11-16T00:44:16.196Z,99784.84
2022-11-16T00:46:44.158Z,99783.13
2022-11-16T00:49:12.227Z,99781.16
2022-11-16T00:51:41.670Z,99786.81
2022-11-16T00:54:10.559Z,99786.56
2022-11-16T00:56:39.410Z,99774.88
2022-11-16T00:59:08.001Z,99778.09
2022-11-16T01:01:35.929Z,99776.88
2022-11-16T01:04:06.590Z,99771.19
2022-11-16T01:06:34.390Z,99772.69
2022-11-16T01:09:03.615Z,99780.88
2022-11-16T01:11:48.700Z,99771.91
2022-11-16T01:14:16.522Z,99781.34
2022-11-16T01:16:44.675Z,99765.97
2022-11-16T01:19:12.406Z,99761.72
2022-11-16T01:21:40.158Z,99766.44
2022-11-16T01:24:09.423Z,99760.75
2022-11-16T01:26:37.143Z,99763.25
2022-11-16T01:29:04.926Z,99763.72
2022-11-16T01:31:37.971Z,99768.44
2022-11-16T01:34:06.461Z,99756.03
2022-11-16T01:36:36.613Z,99760.75
2022-11-16T01:39:06.384Z,99748.31
2022-11-16T01:41:46.257Z,99746.84
2022-11-16T01:44:57.228Z,99757.53
2022-11-16T01:47:25.103Z,99756.78
2022-11-16T01:49:59.523Z,99751.31
2022-11-16T01:52:32.011Z,99761.75
2022-11-16T01:55:00.542Z,99757.31
2022-11-16T01:57:38.958Z,99755.81
2022-11-16T02:00:12.218Z,99752.34
2022-11-16T02:02:50.317Z,99748.41
2022-11-16T02:05:41.311Z,99744.66
2022-11-16T02:08:41.360Z,99742.69
2022-11-16T02:11:28.592Z,99729.00
2022-11-16T02:14:12.135Z,99732.72
2022-11-16T02:16:48.252Z,99732.22
2022-11-16T02:19:36.595Z,99736.47
2022-11-16T02:22:12.465Z,99729.00
2022-11-16T02:24:45.836Z,99718.34
2022-11-16T02:27:37.906Z,99726.53
2022-11-16T02:30:08.768Z,99724.06
2022-11-16T02:32:49.741Z,99732.00
2022-11-16T02:35:22.280Z,99720.38
2022-11-16T02:37:57.238Z,99726.84
2022-11-16T02:40:27.929Z,99730.28
2022-11-16T02:43:00.455Z,99723.56
2022-11-16T02:45:33.683Z,99726.53
2022-11-16T02:48:07.384Z,99717.63
2022-11-16T02:50:36.694Z,99719.63
2022-11-16T02:53:04.757Z,99722.88
2022-11-16T02:55:37.107Z,99715.91
2022-11-16T02:58:07.972Z,99716.88
2022-11-16T03:00:44.948Z,99724.38
2022-11-16T03:03:22.908Z,99723.16
2022-11-16T03:05:54.539Z,99722.91
2022-11-16T03:08:28.164Z,99723.63
2022-11-16T03:11:19.426Z,99716.69
2022-11-16T03:13:49.587Z,99724.16
2022-11-16T03:16:21.650Z,99724.63
2022-11-16T03:18:52.069Z,99734.31
2022-11-16T03:21:26.300Z,99733.56
2022-11-16T03:23:54.519Z,99741.50
2022-11-16T03:26:26.980Z,99736.81
2022-11-16T03:29:02.208Z,99739.03
2022-11-16T03:31:37.285Z,99742.50
2022-11-16T03:34:10.951Z,99730.81
2022-11-16T03:36:42.713Z,99734.50
2022-11-16T03:39:15.832Z,99737.22
2022-11-16T03:41:47.665Z,99730.25
2022-11-16T03:44:18.352Z,99735.47
2022-11-16T03:46:48.737Z,99732.50
2022-11-16T03:49:17.768Z,99745.13
2022-11-16T03:51:45.532Z,99736.94
2022-11-16T03:54:13.890Z,99744.88
2022-11-16T03:56:41.688Z,99741.41
2022-11-16T03:59:09.759Z,99740.19
2022-11-16T04:01:41.844Z,99742.16
2022-11-16T04:04:28.826Z,99748.31
2022-11-16T04:07:23.491Z,99762.69
2022-11-16T04:10:09.063Z,99748.28
2022-11-16T04:12:54.263Z,99754.19
2022-11-16T04:15:39.432Z,99756.59
2022-11-16T04:18:24.765Z,99755.31
2022-11-16T04:21:11.238Z,99757.28
2022-11-16T04:23:56.347Z,99752.78
2022-11-16T04:26:44.896Z,99757.50
2022-11-16T04:29:13.344Z,99762.00
2022-11-16T04:31:58.519Z,99763.22
2022-11-16T04:34:43.905Z,99763.91
2022-11-16T04:37:34.419Z,99762.41
2022-11-16T04:40:03.583Z,99768.81
2022-11-16T04:42:31.517Z,99771.25
2022-11-16T04:45:16.640Z,99770.53
2022-11-16T04:47:51.860Z,99764.53
2022-11-16T04:50:21.833Z,99764.25
2022-11-16T04:52:52.403Z,99769.44
2022-11-16T04:55:21.058Z,99767.69
2022-11-16T04:57:50.235Z,99771.19
2022-11-16T05:00:18.861Z,99773.44
2022-11-16T05:02:46.932Z,99770.72
2022-11-16T05:05:15.003Z,99768.69
2022-11-16T05:07:45.438Z,99773.81
2022-11-16T05:10:21.678Z,99781.13
2022-11-16T05:12:50.724Z,99773.47
2022-11-16T05:15:19.808Z,99774.59
2022-11-16T05:17:48.896Z,99783.19
2022-11-16T05:20:38.176Z,99783.31
2022-11-16T05:23:26.564Z,99781.91
2022-11-16T05:25:56.539Z,99793.22
2022-11-16T05:28:24.319Z,99796.72
2022-11-16T05:30:53.280Z,99790.97
2022-11-16T05:33:23.966Z,99796.91
2022-11-16T05:35:52.599Z,99796.34
2022-11-16T05:38:21.332Z,99802.81
2022-11-16T05:40:53.022Z,99792.81
2022-11-16T05:43:22.420Z,99801.19
2022-11-16T05:45:57.880Z,99808.94
2022-11-16T05:48:25.620Z,99808.53
2022-11-16T05:50:59.063Z,99812.56
2022-11-16T05:53:27.813Z,99817.06
2022-11-16T05:55:55.627Z,99818.09
2022-11-16T05:58:26.243Z,99823.81
2022-11-16T06:00:54.534Z,99816.88
2022-11-16T06:03:23.189Z,99819.13
2022-11-16T06:05:53.215Z,99821.75
2022-11-16T06:08:21.280Z,99818.03
2022-11-16T06:10:52.202Z,99818.75
2022-11-16T06:13:19.965Z,99810.88
2022-11-16T06:15:55.180Z,99814.34
2022-11-16T06:18:23.580Z,99811.59
2022-11-16T06:20:51.574Z,99817.34
2022-11-16T06:23:21.958Z,99815.56
2022-11-16T06:25:54.424Z,99808.88
2022-11-16T06:28:23.020Z,99814.34
2022-11-16T06:30:52.110Z,99820.56
2022-11-16T06:33:20.308Z,99814.53
2022-11-16T06:35:48.348Z,99822.72
2022-11-16T06:38:20.609Z,99821.97
2022-11-16T06:40:52.057Z,99822.16
2022-11-16T06:43:21.000Z,99820.69
2022-11-16T06:45:51.192Z,99833.28
2022-11-16T06:48:21.208Z,99828.50
2022-11-16T06:50:50.344Z,99836.59
2022-11-16T06:53:23.558Z,99835.75
2022-11-16T06:55:55.942Z,99844.88
2022-11-16T06:58:23.788Z,99842.84
2022-11-16T07:00:51.521Z,99850.16
2022-11-16T07:03:20.580Z,99846.91
2022-11-16T07:05:48.363Z,99843.91
2022-11-16T07:08:18.248Z,99844.56
2022-11-16T07:10:46.244Z,99849.72
2022-11-16T07:13:14.088Z,99852.63
2022-11-16T07:15:41.850Z,99845.41
2022-11-16T07:18:10.273Z,99851.53
2022-11-16T07:20:41.470Z,99856.69
2022-11-16T07:23:13.994Z,99868.25
2022-11-16T07:25:47.254Z,99865.25
2022-11-16T07:28:22.402Z,99876.75
2022-11-16T07:30:50.312Z,99872.56
2022-11-16T07:33:24.723Z,99879.31
2022-11-16T07:36:14.365Z,99881.75
2022-11-16T07:38:42.771Z,99891.91
2022-11-16T07:41:12.788Z,99891.31
2022-11-16T07:43:52.956Z,99886.91
2022-11-16T07:49:15.197Z,99899.50
2022-11-16T07:51:56.624Z,99901.75
2022-11-16T07:54:44.004Z,99901.25
2022-11-16T07:57:12.081Z,99911.91
2022-11-16T07:59:42.098Z,99909.91
2022-11-16T08:02:10.621Z,99920.53
2022-11-16T08:04:40.945Z,99920.69
2022-11-16T08:07:11.555Z,99922.00
2022-11-16T08:09:46.997Z,99924.28
2022-11-16T08:12:16.693Z,99930.75
2022-11-16T08:14:44.820Z,99929.56
2022-11-16T08:17:14.004Z,99931.31
2022-11-16T08:19:42.368Z,99937.81
2022-11-16T08:22:14.666Z,99933.41
2022-11-16T08:24:43.328Z,99941.66
2022-11-16T08:27:11.101Z,99938.75
2022-11-16T08:29:39.082Z,99945.13
2022-11-16T08:32:09.776Z,99939.88
2022-11-16T08:34:38.034Z,99935.47
2022-11-16T08:37:06.722Z,99935.53
2022-11-16T08:39:45.352Z,99932.59
2022-11-16T08:42:13.309Z,99943.72
2022-11-16T08:44:46.318Z,99946.22
2022-11-16T08:47:16.825Z,99935.84
2022-11-16T08:49:53.751Z,99949.22
2022-11-16T08:52:22.859Z,99949.06
2022-11-16T08:54:53.564Z,99954.97
2022-11-16T08:57:21.837Z,99954.63
2022-11-16T08:59:54.434Z,99948.13
2022-11-16T09:02:25.509Z,99959.00
2022-11-16T09:04:53.651Z,99943.91
2022-11-16T09:07:22.324Z,99946.13
2022-11-16T09:09:50.227Z,99954.47
2022-11-16T09:12:19.934Z,99949.22
2022-11-16T09:14:47.836Z,99953.97
2022-11-16T09:17:20.207Z,99962.25
2022-11-16T09:19:50.593Z,99951.75
2022-11-16T09:22:18.374Z,99950.72
2022-11-16T09:24:46.155Z,99954.56
2022-11-16T09:27:14.912Z,99962.38
2022-11-16T09:29:44.045Z,99971.59
2022-11-16T09:32:11.778Z,99966.03
2022-11-16T09:34:39.547Z,99969.38
2022-11-16T09:37:08.027Z,99970.47
2022-11-16T09:39:35.777Z,99974.78
2022-11-16T09:42:19.658Z,99969.59
2022-11-16T09:45:04.582Z,99976.66
2022-11-16T09:47:42.010Z,99979.53
2022-11-16T09:50:31.977Z,99972.34
2022-11-16T09:53:13.583Z,99966.88
2022-11-16T09:55:48.396Z,99980.56
2022-11-16T09:58:21.154Z,99977.41
2022-11-16T10:00:57.268Z,99980.50
2022-11-16T10:03:26.481Z,99980.25
2022-11-16T10:06:00.871Z,99973.75
2022-11-16T10:08:41.260Z,99966.53
2022-11-16T10:11:24.717Z,99972.03
2022-11-16T10:14:04.387Z,99966.53
2022-11-16T10:16:41.267Z,99984.25
2022-11-16T10:19:17.825Z,99972.78
2022-11-16T10:21:54.749Z,99978.75
2022-11-16T10:24:34.190Z,99966.34
2022-11-16T10:27:28.419Z,99970.81
2022-11-16T10:30:08.813Z,99962.13
2022-11-16T10:32:42.091Z,99974.66
2022-11-16T10:35:17.997Z,99971.16
2022-11-16T10:37:49.722Z,99972.41
2022-11-16T10:40:23.378Z,99968.13
2022-11-16T10:43:03.283Z,99981.06
2022-11-16T10:45:38.894Z,99967.84
2022-11-16T10:48:18.627Z,99971.41
2022-11-16T10:50:48.695Z,99978.59
2022-11-16T10:53:26.540Z,99970.88
2022-11-16T10:56:10.659Z,99966.41
2022-11-16T10:58:52.207Z,99975.63
2022-11-16T11:01:32.525Z,99973.09
2022-11-16T11:04:16.393Z,99977.34
2022-11-16T11:06:44.847Z,99970.88
2022-11-16T11:09:21.635Z,99986.59
2022-11-16T11:12:16.764Z,99975.38
2022-11-16T11:14:59.893Z,99967.91
2022-11-16T11:17:28.089Z,99967.91
2022-11-16T11:20:01.568Z,99968.84
2022-11-16T11:22:29.806Z,99964.56
2022-11-16T11:24:57.718Z,99974.28
2022-11-16T11:27:32.447Z,99965.84
2022-11-16T11:30:01.338Z,99961.06
2022-11-16T11:32:35.089Z,99955.41
2022-11-16T11:35:06.421Z,99963.69
2022-11-16T11:37:38.022Z,99955.88
2022-11-16T11:40:23.665Z,99948.41
2022-11-16T11:43:00.095Z,99940.13
2022-11-16T11:45:35.379Z,99942.91
2022-11-16T11:48:08.361Z,99938.91
2022-11-16T11:50:49.020Z,99937.88
2022-11-16T11:53:28.715Z,99927.50
2022-11-16T11:55:58.668Z,99932.81
2022-11-16T11:58:31.274Z,99925.41
2022-11-16T12:01:33.374Z,99937.13
2022-11-16T12:04:29.283Z,99943.19
2022-11-16T12:07:12.760Z,99932.50
2022-11-16T12:09:49.542Z,99928.28
2022-11-16T12:12:31.965Z,99936.00
2022-11-16T12:15:30.346Z,99933.94
2022-11-16T12:18:11.745Z,99923.25
2022-11-16T12:20:46.327Z,99937.72
2022-11-16T12:23:44.624Z,99933.44
2022-11-16T12:26:22.480Z,99928.38
2022-11-16T12:29:04.174Z,99926.81
2022-11-16T12:32:03.539Z,99927.31
2022-11-16T12:34:45.404Z,99927.59
2022-11-16T12:37:17.983Z,99935.00
2022-11-16T12:40:01.252Z,99932.75
2022-11-16T12:42:38.484Z,99930.28
2022-11-16T12:45:19.068Z,99914.69
2022-11-16T12:48:03.799Z,99914.53
2022-11-16T12:50:51.035Z,99911.31
2022-11-16T12:53:39.012Z,99919.28
2022-11-16T12:56:16.282Z,99890.63
2022-11-16T12:59:02.348Z,99902.09
2022-11-16T13:01:37.393Z,99894.09
2022-11-16T13:04:11.669Z,99889.16
2022-11-16T13:06:44.105Z,99884.41
2022-11-16T13:09:16.644Z,99897.56
2022-11-16T13:11:50.769Z,99904.56
2022-11-16T13:14:24.023Z,99901.56
2022-11-16T13:16:53.214Z,99897.25
2022-11-16T13:19:21.836Z,99891.19
2022-11-16T13:21:56.148Z,99883.50
2022-11-16T13:24:34.120Z,99892.28
2022-11-16T13:27:23.991Z,99878.94
2022-11-16T13:29:56.608Z,99885.50
2022-11-16T13:32:34.780Z,99884.31
2022-11-16T13:35:06.130Z,99891.81
2022-11-16T13:37:47.247Z,99884.13
2022-11-16T13:40:31.116Z,99882.63
2022-11-16T13:43:05.916Z,99887.63
2022-11-16T13:45:38.214Z,99883.16
2022-11-16T13:48:18.312Z,99884.13
2022-11-16T13:50:51.140Z,99887.09
2022-11-16T13:56:17.804Z,99871.31
2022-11-16T13:58:50.563Z,99871.75
2022-11-16T14:01:20.157Z,99860.50
2022-11-16T14:03:51.549Z,99862.13
2022-11-16T14:06:57.244Z,99846.97
2022-11-16T14:09:48.871Z,99852.00
2022-11-16T14:12:56.368Z,99863.75
2022-11-16T14:15:28.565Z,99851.53
2022-11-16T14:17:59.789Z,99850.06
2022-11-16T14:20:39.608Z,99858.59
2022-11-16T14:23:17.256Z,99839.47
2022-11-16T14:25:50.080Z,99839.97
2022-11-16T14:28:41.973Z,99843.88
2022-11-16T14:31:19.151Z,99835.31
2022-11-16T14:33:51.953Z,99837.03
2022-11-16T14:36:37.327Z,99837.47
2022-11-16T14:39:38.350Z,99841.16
2022-11-16T14:42:16.109Z,99834.31
2022-11-16T14:44:44.587Z,99836.38
2022-11-16T14:47:24.582Z,99824.28
2022-11-16T14:49:53.016Z,99825.66
2022-11-16T14:52:27.393Z,99816.03
2022-11-16T14:55:00.108Z,99812.06
2022-11-16T14:57:27.937Z,99814.06
2022-11-16T15:00:09.400Z,99811.38
2022-11-16T15:02:39.773Z,99808.84
2022-11-16T15:05:08.337Z,99803.84
2022-11-16T15:07:36.194Z,99803.81
2022-11-16T15:10:04.521Z,99800.03
2022-11-16T15:12:43.101Z,99796.25
2022-11-16T15:15:16.063Z,99799.94
2022-11-16T15:17:47.283Z,99800.44
2022-11-16T15:20:19.621Z,99788.97
2022-11-16T15:22:49.679Z,99787.16
2022-11-16T15:25:26.856Z,99786.34
2022-11-16T15:27:55.452Z,99783.56
2022-11-16T15:30:25.759Z,99771.88
2022-11-16T15:32:55.501Z,99767.63
2022-11-16T15:35:25.141Z,99770.06
2022-11-16T15:38:03.534Z,99773.53
2022-11-16T15:40:31.756Z,99771.00
2022-11-16T15:43:00.913Z,99765.00
2022-11-16T15:45:29.763Z,99759.06
2022-11-16T15:48:01.728Z,99756.50
2022-11-16T15:50:30.193Z,99751.75
2022-11-16T15:52:59.819Z,99743.72
2022-11-16T15:55:34.977Z,99739.22
2022-11-16T15:58:06.762Z,99735.44
2022-11-16T16:00:36.669Z,99737.59
2022-11-16T16:03:19.938Z,99726.41
2022-11-16T16:05:48.776Z,99733.06
2022-11-16T16:08:32.280Z,99723.31
2022-11-16T16:11:04.198Z,99695.03
2022-11-16T16:13:34.743Z,99701.94
2022-11-16T16:16:28.966Z,99726.84
2022-11-16T16:19:09.460Z,99730.91
2022-11-16T16:21:44.012Z,99732.66
2022-11-16T16:24:33.115Z,99731.91
2022-11-16T16:27:00.896Z,99726.25
2022-11-16T16:29:28.907Z,99723.47
2022-11-16T16:31:57.132Z,99718.31
2022-11-16T16:34:26.268Z,99711.75
2022-11-16T16:36:53.988Z,99706.94
2022-11-16T16:39:21.719Z,99705.38
2022-11-16T16:41:49.464Z,99692.16
2022-11-16T16:44:17.447Z,99697.53
2022-11-16T16:46:45.247Z,99697.81
2022-11-16T16:49:12.992Z,99701.22
2022-11-16T16:51:42.043Z,99690.81
2022-11-16T16:54:13.084Z,99696.25
2022-11-16T16:56:40.965Z,99701.19
2022-11-16T16:59:08.926Z,99690.97
2022-11-16T17:01:36.823Z,99689.94
2022-11-16T17:04:04.579Z,99682.72
2022-11-16T17:06:32.474Z,99679.03
2022-11-16T17:09:01.546Z,99672.09
2022-11-16T17:11:29.854Z,99672.28
2022-11-16T17:13:57.664Z,99680.22
2022-11-16T17:16:25.403Z,99675.22
2022-11-16T17:18:55.739Z,99676.25
2022-11-16T17:21:23.876Z,99667.81
2022-11-16T17:23:51.648Z,99661.81
2022-11-16T17:26:20.974Z,99675.66
2022-11-16T17:28:49.012Z,99667.94
2022-11-16T17:31:17.494Z,99672.09
2022-11-16T17:33:45.296Z,99669.78
2022-11-16T17:36:14.111Z,99669.03
2022-11-16T17:38:41.870Z,99678.16
2022-11-16T17:41:12.596Z,99678.91
2022-11-16T17:43:42.951Z,99673.94
2022-11-16T17:46:12.634Z,99680.06
2022-11-16T17:48:42.198Z,99661.00
2022-11-16T17:51:10.704Z,99652.34
2022-11-16T17:53:39.874Z,99648.13
2022-11-16T17:56:08.652Z,99649.09
2022-11-16T17:58:36.383Z,99647.31
2022-11-16T18:01:06.221Z,99648.25
2022-11-16T18:03:37.260Z,99648.53
2022-11-16T18:06:07.442Z,99648.06
2022-11-16T18:08:36.921Z,99642.91
2022-11-16T18:11:06.300Z,99644.84
2022-11-16T18:13:34.709Z,99644.38
2022-11-16T18:16:06.313Z,99647.44
2022-11-16T18:18:34.254Z,99643.50
2022-11-16T18:21:02.364Z,99635.13
2022-11-16T18:23:30.361Z,99635.66
2022-11-16T18:25:58.121Z,99641.13
2022-11-16T18:28:26.111Z,99635.38
2022-11-16T18:30:53.897Z,99647.78
2022-11-16T18:33:27.778Z,99635.94
2022-11-16T18:35:58.093Z,99642.13
2022-11-16T18:38:26.190Z,99645.59
2022-11-16T18:41:04.570Z,99636.22
2022-11-16T18:43:34.051Z,99629.53
2022-11-16T18:46:02.356Z,99628.31
2022-11-16T18:48:31.626Z,99622.88
2022-11-16T18:51:00.163Z,99626.34
2022-11-16T18:53:28.107Z,99614.69
2022-11-16T18:55:58.134Z,99620.63
2022-11-16T19:01:18.016Z,99610.19
2022-11-16T19:03:47.298Z,99603.81
2022-11-16T19:06:17.690Z,99600.59
2022-11-16T19:08:50.461Z,99590.94
2022-11-16T19:11:22.017Z,99603.59
2022-11-16T19:13:53.666Z,99592.97
2022-11-16T19:16:21.471Z,99590.22
2022-11-16T19:18:50.753Z,99585.53
2022-11-16T19:21:19.388Z,99561.78
2022-11-16T19:23:48.670Z,99554.63
2022-11-16T19:26:18.860Z,99551.41
2022-11-16T19:28:48.139Z,99549.69
2022-11-16T19:31:18.303Z,99546.03
2022-11-16T19:33:46.863Z,99528.44
2022-11-16T19:36:17.516Z,99536.34
2022-11-16T19:38:46.203Z,99530.88
2022-11-16T19:41:15.339Z,99521.22
2022-11-16T19:43:43.315Z,99511.06
2022-11-16T19:46:12.354Z,99505.41
2022-11-16T19:48:41.210Z,99511.88
2022-11-16T19:51:10.258Z,99510.63
2022-11-16T19:53:40.423Z,99496.00
2022-11-16T19:56:11.314Z,99491.78
2022-11-16T19:58:39.390Z,99487.81
2022-11-16T20:01:08.963Z,99485.84
2022-11-16T20:03:38.265Z,99471.47
2022-11-16T20:06:11.408Z,99474.22
2022-11-16T20:08:42.095Z,99468.00
2022-11-16T20:11:14.256Z,99460.09
2022-11-16T20:13:42.999Z,99453.91
2022-11-16T20:16:12.589Z,99451.41
2022-11-16T20:18:41.844Z,99446.97
2022-11-16T20:21:13.724Z,99442.75
2022-11-16T20:23:44.555Z,99433.34
2022-11-16T20:26:13.539Z,99433.34
2022-11-16T20:28:43.251Z,99442.25
2022-11-16T20:31:12.836Z,99434.34
2022-11-16T20:33:40.815Z,99436.09
2022-11-16T20:36:10.907Z,99434.13
2022-11-16T20:38:39.888Z,99428.69
2022-11-16T20:41:14.187Z,99422.25
2022-11-16T20:43:42.809Z,99420.28
2022-11-16T20:46:11.623Z,99411.63
2022-11-16T20:48:40.719Z,99406.91
2022-11-16T20:51:10.766Z,99404.94
2022-11-16T20:53:38.917Z,99394.78
2022-11-16T20:56:08.518Z,99379.19
2022-11-16T20:58:37.989Z,99386.63
2022-11-16T21:01:08.749Z,99389.09
2022-11-16T21:03:37.019Z,99379.72
2022-11-16T21:06:08.454Z,99377.72
2022-11-16T21:08:37.481Z,99382.66
2022-11-16T21:11:11.169Z,99369.03
2022-11-16T21:13:57.575Z,99361.13
2022-11-16T21:16:25.567Z,99357.91
2022-11-16T21:18:54.466Z,99343.03
2022-11-16T21:21:22.603Z,99338.31
2022-11-16T21:23:52.465Z,99336.31
2022-11-16T21:26:22.021Z,99334.84
2022-11-16T21:28:51.311Z,99332.84
2022-11-16T21:31:21.113Z,99319.97
2022-11-16T21:33:49.060Z,99311.06
2022-11-16T21:36:18.272Z,99306.09
2022-11-16T21:38:46.880Z,99315.00
2022-11-16T21:41:16.326Z,99307.59
2022-11-16T21:43:44.246Z,99291.97
2022-11-16T21:46:15.016Z,99291.97
2022-11-16T21:48:43.124Z,99274.38
2022-11-16T21:51:12.306Z,99278.63
2022-11-16T21:53:40.735Z,99260.28
2022-11-16T21:56:12.729Z,99260.03
2022-11-16T21:58:40.717Z,99261.00
2022-11-16T22:01:09.548Z,99243.16
2022-11-16T22:03:39.108Z,99243.16
2022-11-16T22:06:26.621Z,99239.91
2022-11-16T22:08:54.311Z,99236.19
2022-11-16T22:11:22.453Z,99242.41
2022-11-16T22:13:50.852Z,99232.50
2022-11-16T22:16:20.914Z,99231.00
2022-11-16T22:18:50.109Z,99217.38
2022-11-16T22:21:18.117Z,99218.09
2022-11-16T22:23:46.090Z,99205.25
2022-11-16T22:26:14.826Z,99196.31
2022-11-16T22:28:42.831Z,99188.91
2022-11-16T22:31:12.429Z,99174.03
2022-11-16T22:33:40.801Z,99169.84
2022-11-16T22:36:11.457Z,99158.44
2022-11-16T22:38:39.250Z,99151.75
2022-11-16T22:41:07.354Z,99143.59
2022-11-16T22:43:35.953Z,99138.63
2022-11-16T22:46:06.106Z,99130.91
2022-11-16T22:48:35.548Z,99130.44
2022-11-16T22:51:04.880Z,99117.06
2022-11-16T22:53:35.584Z,99113.59
2022-11-16T22:56:08.096Z,99111.13
2022-11-16T22:58:36.317Z,99100.22
2022-11-16T23:01:04.715Z,99089.06
2022-11-16T23:03:32.813Z,99074.94
2022-11-16T23:06:00.920Z,99071.69
2022-11-16T23:08:28.974Z,99060.56
2022-11-16T23:11:19.719Z,99064.03
2022-11-16T23:14:05.091Z,99045.44
2022-11-16T23:16:33.772Z,99041.47
2022-11-16T23:19:01.540Z,99044.19
2022-11-16T23:21:46.830Z,99033.56
2022-11-16T23:24:33.852Z,99043.94
2022-11-16T23:27:22.259Z,99025.38
2022-11-16T23:29:50.360Z,99022.38
2022-11-16T23:32:18.150Z,99023.63
2022-11-16T23:34:45.880Z,99004.31
2022-11-16T23:37:13.644Z,99005.53
2022-11-16T23:39:41.370Z,99003.06
2022-11-16T23:42:28.212Z,99001.56
2022-11-16T23:44:56.186Z,98972.34
2022-11-16T23:47:24.075Z,98963.41
2022-11-16T23:49:51.801Z,98949.06
2022-11-16T23:52:19.812Z,98932.50
2022-11-16T23:54:47.525Z,98918.63
2022-11-16T23:57:16.679Z,98904.28
2022-11-16T23:59:44.444Z,98897.13
